CheckWX is a tool to help pilots better visualize weather data.  It is not intended as a substitute for an official pre-flight weather briefing.

12:03:31 UTC

20V METAR
Mc Elroy Airfield Airport
Kremmling, Colorado, USA
Current

10 mins ago

K20V 251154Z AUTO 27005KT 10SM OVC027 00/00 A3031 RMK AO2
Observed
Mar-25 @ 11:54 UTC
Wind
  • 270° at 5 KTS
Visibility
10 SM
Flight Rules
MVFR
Cloud Levels
  • Overcast at 2,700' AGL
Temperature
C / 32°F
Dewpoint
C / 32°F
Humidity
100%
Altimeter
30.31" Hg
Pressure
1026.42 hPa
Previous

34 mins ago

K20V 251130Z AUTO 00000KT 10SM SCT027 OVC033 00/00 A3030 RMK AO2
Observed
Mar-25 @ 11:30 UTC
Visibility
10 SM
Flight Rules
VFR
Cloud Levels
  • Scattered at 2,700' AGL
  • Overcast at 3,300' AGL
Temperature
C / 32°F
Dewpoint
C / 32°F
Humidity
100%
Altimeter
30.3" Hg
Pressure
1026.12 hPa
Previous

52 mins ago

K20V 251112Z AUTO 00000KT 10SM -SN BKN027 OVC037 00/00 A3030 RMK AO2
Observed
Mar-25 @ 11:12 UTC
Visibility
10 SM
Flight Rules
MVFR
Conditions
Light Snow
Cloud Levels
  • Broken at 2,700' AGL
  • Overcast at 3,700' AGL
Temperature
C / 32°F
Dewpoint
C / 32°F
Humidity
100%
Altimeter
30.3" Hg
Pressure
1026.12 hPa